Monday, October 16, 2017, 11:47 PM EDT

KPHF, Williamsburg International Airport

Location: Newport News, VA, United States Lat: 37.133
Local Time: 11:47 PM EDT ( 3:47 GMT) Lon: -76.5
Time Zone: US/Eastern Elev: 42 ft

Show me the last for .
Show Decoded

2017-10-16 22:54 METAR KPHF 170254Z 34004KT 10SM CLR 11/08 A3020 RMK AO2 SLP227 T01060078 51016 =
2017-10-16 21:54 METAR KPHF 170154Z 00000KT 10SM CLR 11/08 A3020 RMK AO2 SLP224 T01060078 =
2017-10-16 20:54 METAR KPHF 170054Z 36003KT 10SM CLR 12/08 A3017 RMK AO2 SLP215 T01170078 =
2017-10-16 19:54 METAR KPHF 162354Z 01004KT 10SM CLR 13/08 A3016 RMK AO2 SLP211 60000 T01280078
                 10161 20128 53022 =
2017-10-16 18:54 METAR KPHF 162254Z 36004KT 10SM CLR 13/08 A3012 RMK AO2 SLP200 T01330083 =
2017-10-16 17:54 METAR KPHF 162154Z 01008KT 10SM BKN080 16/08 A3011 RMK AO2 SLP195 T01560078 =
2017-10-16 16:54 METAR KPHF 162054Z 01009KT 10SM OVC070 16/10 A3009 RMK AO2 SLP189 60000
                 T01610100 53013 =
2017-10-16 15:54 METAR KPHF 161954Z 35008KT 10SM OVC060 16/09 A3008 RMK AO2 SLP183 T01610089 =
2017-10-16 14:54 METAR KPHF 161854Z 36011G20KT 10SM OVC050 16/09 A3006 RMK AO2 RAE02 SLP179 P0000
                 T01610094 =
2017-10-16 13:54 METAR KPHF 161754Z 35010G20KT 10SM -RA OVC048 16/12 A3005 RMK AO2 RAE13B38
                 SLP176 P0000 60005 T01610117 10178 20161 55004 =
2017-10-16 12:54 METAR KPHF 161654Z 35011KT 9SM -RA OVC041 16/13 A3005 RMK AO2 RAE1557B43 SLP176
                 P0000 T01610128 =
2017-10-16 11:54 METAR KPHF 161554Z 34007KT 10SM -RA BKN038 OVC046 17/15 A3006 RMK AO2
                 RAB01E15B45 SLP178 P0000 T01720150 =
2017-10-16 11:42 METAR KPHF 161542Z 01006KT 10SM FEW022 FEW029 OVC035 17/14 A3006 RMK AO2
                 RAB01E15 P0000 T01670144 =
2017-10-16 10:54 METAR KPHF 161454Z 35007KT 10SM FEW009 BKN022 OVC027 16/14 A3007 RMK AO2 PRESRR
                 SLP180 60005 T01610139 51023 =
2017-10-16 10:42 METAR KPHF 161442Z 03009KT 10SM FEW009 BKN016 OVC020 17/14 A3004 RMK AO2
                 T01670144 =
2017-10-16 10:18 METAR KPHF 161418Z 01006KT 10SM BKN010 BKN025 OVC055 17/15 A3005 RMK AO2
                 T01670150 =
2017-10-16 09:54 METAR KPHF 161354Z 01006KT 10SM FEW026 OVC041 17/15 A3005 RMK AO2 RAE23 SLP173
                 P0001 T01670150 =
2017-10-16 09:17 METAR KPHF 161317Z 01007KT 9SM -RA FEW017 SCT026 OVC037 17/14 A3005 RMK AO2
                 P0001 T01670144 =
2017-10-16 09:03 METAR KPHF 161303Z 34007KT 3SM -RA BR FEW016 BKN028 OVC036 17/15 A3004 RMK AO2
                 P0000 T01670150 =
2017-10-16 08:54 METAR KPHF 161254Z 01008KT 1 3/4SM +RA FEW020 OVC028 17/14 A3003 RMK AO2 RAB46
                 SLP168 P0004 T01720144 =
2017-10-16 08:05 METAR KPHF 161205Z 01011G18KT 10SM SCT012 OVC025 18/14 A3000 RMK AO2 T01780144 =
2017-10-16 07:54 METAR KPHF 161154Z 01010G18KT 10SM BKN011 OVC022 18/16 A3000 RMK AO2 RAB08E48
                 PRESRR SLP157 P0000 60000 T01780156 10217 20178 53028 =
2017-10-16 07:19 METAR KPHF 161119Z 36011G19KT 10SM -RA BKN013 OVC020 19/17 A2998 RMK AO2 RAB08
                 PRESRR P0000 T01940172 =
2017-10-16 06:54 METAR KPHF 161054Z 26004KT 10SM BKN022 OVC027 21/18 A2994 RMK AO2 SLP139
                 T02110183 =
2017-10-16 06:22 METAR KPHF 161022Z 25005KT 10SM BKN026 BKN033 OVC046 21/18 A2993 RMK AO2
                 T02110183 =
2017-10-16 05:54 METAR KPHF 160954Z 24006KT 10SM SCT034 BKN041 21/18 A2993 RMK AO2 SLP135
                 T02110183 =
2017-10-16 04:54 METAR KPHF 160854Z 22008KT 10SM FEW120 21/18 A2992 RMK AO2 SLP130 T02110183
                 55008 =
2017-10-16 03:54 METAR KPHF 160754Z 24011KT 10SM FEW110 22/18 A2991 RMK AO2 SLP129 T02170178 =
2017-10-16 02:54 METAR KPHF 160654Z 22010KT 10SM BKN120 22/18 A2993 RMK AO2 SLP133 T02170183 =
2017-10-16 01:54 METAR KPHF 160554Z 22008KT 10SM FEW110 21/18 A2994 RMK AO2 SLP137 T02110178
                 10233 20211 56007 =
2017-10-16 00:54 METAR KPHF 160454Z 23011KT 10SM CLR 22/18 A2994 RMK AO2 SLP139 T02170178
                 402720194 =
2017-10-15 23:54 METAR KPHF 160354Z 22011KT 10SM CLR 22/18 A2995 RMK AO2 SLP141 T02220178 =

Support USWX by starting your Amazon purchase here.